sensor_id;sensor_type;location;lat;lon;timestamp;pressure;altitude;pressure_sealevel;temperature;humidity
21960;BME280;11144;43.030;25.108;2023-07-29T00:01:01;99188.16;;;15.93;58.98
21960;BME280;11144;43.030;25.108;2023-07-29T00:02:33;99188.50;;;15.96;59.44
21960;BME280;11144;43.030;25.108;2023-07-29T00:04:06;99186.09;;;15.95;58.94
21960;BME280;11144;43.030;25.108;2023-07-29T00:05:41;99177.78;;;15.91;59.39
21960;BME280;11144;43.030;25.108;2023-07-29T00:07:14;99185.69;;;15.91;59.37
21960;BME280;11144;43.030;25.108;2023-07-29T00:08:46;99173.72;;;15.89;59.15
21960;BME280;11144;43.030;25.108;2023-07-29T00:10:19;99180.66;;;15.90;59.86
21960;BME280;11144;43.030;25.108;2023-07-29T00:11:52;99174.78;;;15.88;59.61
21960;BME280;11144;43.030;25.108;2023-07-29T00:13:26;99177.19;;;15.89;59.49
21960;BME280;11144;43.030;25.108;2023-07-29T00:14:59;99176.00;;;15.85;60.14
21960;BME280;11144;43.030;25.108;2023-07-29T00:16:32;99179.91;;;15.83;60.04
21960;BME280;11144;43.030;25.108;2023-07-29T00:18:05;99177.91;;;15.78;60.36
21960;BME280;11144;43.030;25.108;2023-07-29T00:19:39;99176.78;;;15.68;60.80
21960;BME280;11144;43.030;25.108;2023-07-29T00:21:11;99179.09;;;15.58;61.02
21960;BME280;11144;43.030;25.108;2023-07-29T00:22:44;99168.22;;;15.47;61.04
21960;BME280;11144;43.030;25.108;2023-07-29T00:24:17;99168.47;;;15.39;60.85
21960;BME280;11144;43.030;25.108;2023-07-29T00:25:50;99167.47;;;15.34;61.19
21960;BME280;11144;43.030;25.108;2023-07-29T00:27:23;99165.66;;;15.34;61.05
21960;BME280;11144;43.030;25.108;2023-07-29T00:28:56;99164.66;;;15.35;61.30
21960;BME280;11144;43.030;25.108;2023-07-29T00:30:31;99176.81;;;15.36;61.23
21960;BME280;11144;43.030;25.108;2023-07-29T00:32:04;99162.66;;;15.31;61.29
21960;BME280;11144;43.030;25.108;2023-07-29T00:33:39;99166.53;;;15.28;61.72
21960;BME280;11144;43.030;25.108;2023-07-29T00:35:12;99166.13;;;15.25;61.32
21960;BME280;11144;43.030;25.108;2023-07-29T00:36:45;99161.50;;;15.20;61.21
21960;BME280;11144;43.030;25.108;2023-07-29T00:38:18;99171.81;;;15.28;61.34
21960;BME280;11144;43.030;25.108;2023-07-29T00:39:51;99164.66;;;15.29;61.60
21960;BME280;11144;43.030;25.108;2023-07-29T00:41:24;99166.13;;;15.25;61.64
21960;BME280;11144;43.030;25.108;2023-07-29T00:42:58;99158.44;;;15.23;61.38
21960;BME280;11144;43.030;25.108;2023-07-29T00:44:31;99160.25;;;15.23;61.36
21960;BME280;11144;43.030;25.108;2023-07-29T00:46:07;99148.97;;;15.09;61.60
21960;BME280;11144;43.030;25.108;2023-07-29T00:47:43;99161.50;;;15.20;61.48
21960;BME280;11144;43.030;25.108;2023-07-29T00:49:16;99169.00;;;15.23;61.71
21960;BME280;11144;43.030;25.108;2023-07-29T00:50:49;99163.72;;;15.23;61.77
21960;BME280;11144;43.030;25.108;2023-07-29T00:52:22;99160.84;;;15.25;61.71
21960;BME280;11144;43.030;25.108;2023-07-29T00:53:55;99154.16;;;15.22;61.81
21960;BME280;11144;43.030;25.108;2023-07-29T00:55:28;99151.38;;;15.17;61.65
21960;BME280;11144;43.030;25.108;2023-07-29T00:57:01;99156.44;;;15.19;62.00
21960;BME280;11144;43.030;25.108;2023-07-29T00:58:34;99154.59;;;15.19;62.24
21960;BME280;11144;43.030;25.108;2023-07-29T01:00:08;99154.59;;;15.19;62.27
21960;BME280;11144;43.030;25.108;2023-07-29T01:01:42;99160.91;;;15.18;61.88
21960;BME280;11144;43.030;25.108;2023-07-29T01:03:16;99160.69;;;15.20;61.82
21960;BME280;11144;43.030;25.108;2023-07-29T01:04:52;99162.53;;;15.19;62.19
21960;BME280;11144;43.030;25.108;2023-07-29T01:06:32;99173.09;;;15.19;62.46
21960;BME280;11144;43.030;25.108;2023-07-29T01:08:11;99172.06;;;15.20;62.30
21960;BME280;11144;43.030;25.108;2023-07-29T01:09:52;99174.06;;;15.25;62.76
21960;BME280;11144;43.030;25.108;2023-07-29T01:11:35;99173.63;;;15.28;62.47
21960;BME280;11144;43.030;25.108;2023-07-29T01:13:18;99173.63;;;15.28;62.15
21960;BME280;11144;43.030;25.108;2023-07-29T01:14:56;99171.22;;;15.26;62.48
21960;BME280;11144;43.030;25.108;2023-07-29T01:16:37;99180.16;;;15.25;62.59
21960;BME280;11144;43.030;25.108;2023-07-29T01:18:22;99175.47;;;15.27;63.11
21960;BME280;11144;43.030;25.108;2023-07-29T01:20:00;99179.72;;;15.28;62.82
21960;BME280;11144;43.030;25.108;2023-07-29T01:21:35;99170.19;;;15.27;62.07
21960;BME280;11144;43.030;25.108;2023-07-29T01:23:08;99172.81;;;15.27;62.08
21960;BME280;11144;43.030;25.108;2023-07-29T01:24:42;99172.06;;;15.20;62.61
21960;BME280;11144;43.030;25.108;2023-07-29T01:26:15;99180.03;;;15.14;62.96
21960;BME280;11144;43.030;25.108;2023-07-29T01:27:50;99178.03;;;15.09;62.64
21960;BME280;11144;43.030;25.108;2023-07-29T01:29:24;99182.13;;;15.05;63.15
21960;BME280;11144;43.030;25.108;2023-07-29T01:30:59;99183.16;;;15.04;63.11
21960;BME280;11144;43.030;25.108;2023-07-29T01:32:39;99188.59;;;15.09;63.61
21960;BME280;11144;43.030;25.108;2023-07-29T01:34:28;99184.34;;;15.08;63.14
21960;BME280;11144;43.030;25.108;2023-07-29T01:36:05;99180.28;;;15.06;62.67
21960;BME280;11144;43.030;25.108;2023-07-29T01:37:42;99176.25;;;15.03;63.63
21960;BME280;11144;43.030;25.108;2023-07-29T01:39:16;99178.28;;;15.01;63.05
21960;BME280;11144;43.030;25.108;2023-07-29T01:40:52;99184.38;;;15.02;63.35
21960;BME280;11144;43.030;25.108;2023-07-29T01:42:25;99172.00;;;14.96;63.41
21960;BME280;11144;43.030;25.108;2023-07-29T01:44:01;99177.13;;;14.91;63.46
21960;BME280;11144;43.030;25.108;2023-07-29T01:45:35;99172.53;;;14.80;63.72
21960;BME280;11144;43.030;25.108;2023-07-29T01:47:10;99179.91;;;14.71;64.17
21960;BME280;11144;43.030;25.108;2023-07-29T01:48:44;99178.88;;;14.65;63.84
21960;BME280;11144;43.030;25.108;2023-07-29T01:50:18;99180.56;;;14.60;64.02
21960;BME280;11144;43.030;25.108;2023-07-29T01:51:51;99181.34;;;14.60;63.74
21960;BME280;11144;43.030;25.108;2023-07-29T01:53:23;99182.97;;;14.61;64.27
21960;BME280;11144;43.030;25.108;2023-07-29T01:54:57;99183.78;;;14.62;64.40
21960;BME280;11144;43.030;25.108;2023-07-29T01:56:33;99189.84;;;14.62;64.26
21960;BME280;11144;43.030;25.108;2023-07-29T01:58:09;99188.25;;;14.61;64.47
21960;BME280;11144;43.030;25.108;2023-07-29T01:59:42;99184.59;;;14.56;64.69
21960;BME280;11144;43.030;25.108;2023-07-29T02:01:15;99188.72;;;14.45;65.90
21960;BME280;11144;43.030;25.108;2023-07-29T02:02:48;99186.72;;;14.28;66.26
21960;BME280;11144;43.030;25.108;2023-07-29T02:04:22;99189.59;;;14.20;66.37
21960;BME280;11144;43.030;25.108;2023-07-29T02:05:54;99198.34;;;14.14;66.86
21960;BME280;11144;43.030;25.108;2023-07-29T02:07:27;99197.53;;;14.13;66.79
21960;BME280;11144;43.030;25.108;2023-07-29T02:09:01;99203.00;;;14.18;66.81
21960;BME280;11144;43.030;25.108;2023-07-29T02:10:33;99201.34;;;14.24;66.42
21960;BME280;11144;43.030;25.108;2023-07-29T02:12:08;99204.56;;;14.26;66.42
21960;BME280;11144;43.030;25.108;2023-07-29T02:13:43;99198.31;;;14.27;66.33
21960;BME280;11144;43.030;25.108;2023-07-29T02:15:17;99202.38;;;14.29;66.12
21960;BME280;11144;43.030;25.108;2023-07-29T02:16:50;99199.75;;;14.29;65.64
21960;BME280;11144;43.030;25.108;2023-07-29T02:18:23;99199.09;;;14.27;66.04
21960;BME280;11144;43.030;25.108;2023-07-29T02:19:56;99200.34;;;14.25;65.97
21960;BME280;11144;43.030;25.108;2023-07-29T02:21:29;99201.34;;;14.24;66.02
21960;BME280;11144;43.030;25.108;2023-07-29T02:23:02;99201.94;;;14.26;66.07
21960;BME280;11144;43.030;25.108;2023-07-29T02:24:34;99207.44;;;14.24;66.31
21960;BME280;11144;43.030;25.108;2023-07-29T02:26:08;99202.16;;;14.24;66.11
21960;BME280;11144;43.030;25.108;2023-07-29T02:27:42;99209.84;;;14.26;66.01
21960;BME280;11144;43.030;25.108;2023-07-29T02:29:15;99210.31;;;14.29;66.07
21960;BME280;11144;43.030;25.108;2023-07-29T02:31:13;99212.72;;;14.31;68.02
21960;BME280;11144;43.030;25.108;2023-07-29T02:32:47;99210.09;;;14.31;66.12
21960;BME280;11144;43.030;25.108;2023-07-29T02:34:21;99210.31;;;14.29;66.38
21960;BME280;11144;43.030;25.108;2023-07-29T02:35:53;99206.63;;;14.30;66.14
21960;BME280;11144;43.030;25.108;2023-07-29T02:37:26;99206.41;;;14.32;66.76
21960;BME280;11144;43.030;25.108;2023-07-29T02:38:59;99202.97;;;14.25;66.39
21960;BME280;11144;43.030;25.108;2023-07-29T02:40:32;99206.41;;;14.19;66.75
21960;BME280;11144;43.030;25.108;2023-07-29T02:42:05;99207.47;;;14.11;66.79
21960;BME280;11144;43.030;25.108;2023-07-29T02:43:39;99208.69;;;14.09;66.97
21960;BME280;11144;43.030;25.108;2023-07-29T02:45:13;99207.28;;;13.99;67.32
21960;BME280;11144;43.030;25.108;2023-07-29T02:46:46;99209.91;;;13.99;66.83
21960;BME280;11144;43.030;25.108;2023-07-29T02:48:19;99207.69;;;13.96;66.93
21960;BME280;11144;43.030;25.108;2023-07-29T02:49:51;99207.28;;;13.99;66.92
21960;BME280;11144;43.030;25.108;2023-07-29T02:51:25;99206.25;;;14.00;66.42
21960;BME280;11144;43.030;25.108;2023-07-29T02:52:57;99211.53;;;14.00;66.35
21960;BME280;11144;43.030;25.108;2023-07-29T02:54:30;99208.69;;;14.02;66.40
21960;BME280;11144;43.030;25.108;2023-07-29T02:56:04;99206.66;;;14.04;66.41
21960;BME280;11144;43.030;25.108;2023-07-29T02:57:38;99205.44;;;14.07;66.07
21960;BME280;11144;43.030;25.108;2023-07-29T02:59:13;99203.44;;;14.02;66.55
21960;BME280;11144;43.030;25.108;2023-07-29T03:00:45;99194.13;;;13.93;66.21
21960;BME280;11144;43.030;25.108;2023-07-29T03:02:22;99205.03;;;13.96;66.63
21960;BME280;11144;43.030;25.108;2023-07-29T03:03:55;99209.13;;;13.92;66.68
21960;BME280;11144;43.030;25.108;2023-07-29T03:05:28;99205.50;;;13.87;66.95
21960;BME280;11144;43.030;25.108;2023-07-29T03:07:01;99200.03;;;13.75;67.60
21960;BME280;11144;43.030;25.108;2023-07-29T03:08:34;99208.31;;;13.72;67.15
21960;BME280;11144;43.030;25.108;2023-07-29T03:10:08;99220.06;;;13.70;67.10
21960;BME280;11144;43.030;25.108;2023-07-29T03:11:43;99215.84;;;13.62;67.79
21960;BME280;11144;43.030;25.108;2023-07-29T03:13:17;99216.06;;;13.67;67.27
21960;BME280;11144;43.030;25.108;2023-07-29T03:14:51;99221.50;;;13.72;67.51
21960;BME280;11144;43.030;25.108;2023-07-29T03:16:24;99224.56;;;13.69;66.95
21960;BME280;11144;43.030;25.108;2023-07-29T03:17:59;99217.66;;;13.68;67.25
21960;BME280;11144;43.030;25.108;2023-07-29T03:19:32;99226.97;;;13.71;67.18
21960;BME280;11144;43.030;25.108;2023-07-29T03:21:05;99219.88;;;13.71;67.39
21960;BME280;11144;43.030;25.108;2023-07-29T03:22:39;99217.66;;;13.75;67.45
21960;BME280;11144;43.030;25.108;2023-07-29T03:24:11;99228.41;;;13.80;67.20
21960;BME280;11144;43.030;25.108;2023-07-29T03:25:48;99230.59;;;13.83;67.58
21960;BME280;11144;43.030;25.108;2023-07-29T03:27:20;99220.06;;;13.83;67.21
21960;BME280;11144;43.030;25.108;2023-07-29T03:28:54;99224.09;;;13.92;67.22
21960;BME280;11144;43.030;25.108;2023-07-29T03:30:27;99222.72;;;13.96;66.98
21960;BME280;11144;43.030;25.108;2023-07-29T03:32:01;99221.47;;;13.98;66.60
21960;BME280;11144;43.030;25.108;2023-07-29T03:33:33;99225.34;;;14.02;66.94
21960;BME280;11144;43.030;25.108;2023-07-29T03:35:07;99228.97;;;14.01;67.22
21960;BME280;11144;43.030;25.108;2023-07-29T03:36:39;99228.38;;;13.99;67.10
21960;BME280;11144;43.030;25.108;2023-07-29T03:38:13;99225.53;;;13.94;67.21
21960;BME280;11144;43.030;25.108;2023-07-29T03:39:46;99231.41;;;13.96;67.18
21960;BME280;11144;43.030;25.108;2023-07-29T03:41:19;99231.84;;;13.93;67.06
21960;BME280;11144;43.030;25.108;2023-07-29T03:42:51;99230.81;;;13.94;67.12
21960;BME280;11144;43.030;25.108;2023-07-29T03:44:25;99234.25;;;13.95;67.40
21960;BME280;11144;43.030;25.108;2023-07-29T03:45:59;99231.00;;;13.99;67.08
21960;BME280;11144;43.030;25.108;2023-07-29T03:47:33;99233.44;;;14.01;67.30
21960;BME280;11144;43.030;25.108;2023-07-29T03:49:06;99239.31;;;14.03;67.18
21960;BME280;11144;43.030;25.108;2023-07-29T03:50:39;99239.13;;;14.04;66.84
21960;BME280;11144;43.030;25.108;2023-07-29T03:52:11;99246.41;;;14.09;66.90
21960;BME280;11144;43.030;25.108;2023-07-29T03:53:45;99239.50;;;14.15;67.04
21960;BME280;11144;43.030;25.108;2023-07-29T03:55:18;99245.78;;;14.20;67.44
21960;BME280;11144;43.030;25.108;2023-07-29T03:56:51;99241.91;;;14.23;67.27
21960;BME280;11144;43.030;25.108;2023-07-29T03:58:24;99250.00;;;14.28;67.06
21960;BME280;11144;43.030;25.108;2023-07-29T03:59:57;99253.25;;;14.23;67.38
21960;BME280;11144;43.030;25.108;2023-07-29T04:01:31;99245.94;;;14.25;67.11
21960;BME280;11144;43.030;25.108;2023-07-29T04:03:04;99254.28;;;14.35;67.16
21960;BME280;11144;43.030;25.108;2023-07-29T04:04:38;99245.94;;;14.38;67.18
21960;BME280;11144;43.030;25.108;2023-07-29T04:06:12;99249.81;;;14.42;66.84
21960;BME280;11144;43.030;25.108;2023-07-29T04:07:46;99246.38;;;14.42;66.60
21960;BME280;11144;43.030;25.108;2023-07-29T04:09:18;99245.75;;;14.46;66.82
21960;BME280;11144;43.030;25.108;2023-07-29T04:10:51;99251.00;;;14.53;66.71
21960;BME280;11144;43.030;25.108;2023-07-29T04:12:25;99256.03;;;14.61;66.56
21960;BME280;11144;43.030;25.108;2023-07-29T04:13:58;99247.91;;;14.69;66.56
21960;BME280;11144;43.030;25.108;2023-07-29T04:15:30;99247.66;;;14.77;66.32
21960;BME280;11144;43.030;25.108;2023-07-29T04:17:05;99246.22;;;14.81;66.46
21960;BME280;11144;43.030;25.108;2023-07-29T04:18:39;99247.00;;;14.88;66.64
21960;BME280;11144;43.030;25.108;2023-07-29T04:20:12;99241.47;;;14.96;66.48
21960;BME280;11144;43.030;25.108;2023-07-29T04:21:44;99239.59;;;15.03;66.58
21960;BME280;11144;43.030;25.108;2023-07-29T04:23:18;99241.22;;;15.04;66.67
21960;BME280;11144;43.030;25.108;2023-07-29T04:24:50;99239.38;;;15.05;66.43
21960;BME280;11144;43.030;25.108;2023-07-29T04:26:24;99243.28;;;15.02;66.64
21960;BME280;11144;43.030;25.108;2023-07-29T04:27:57;99238.41;;;14.99;66.87
21960;BME280;11144;43.030;25.108;2023-07-29T04:29:30;99243.28;;;14.96;66.99
21960;BME280;11144;43.030;25.108;2023-07-29T04:31:03;99242.88;;;14.99;66.69
21960;BME280;11144;43.030;25.108;2023-07-29T04:32:38;99240.41;;;15.04;66.80
21960;BME280;11144;43.030;25.108;2023-07-29T04:34:12;99245.69;;;15.04;66.71
21960;BME280;11144;43.030;25.108;2023-07-29T04:35:44;99247.06;;;15.13;66.80
21960;BME280;11144;43.030;25.108;2023-07-29T04:37:18;99239.44;;;15.29;66.40
21960;BME280;11144;43.030;25.108;2023-07-29T04:38:51;99243.81;;;15.48;66.12
21960;BME280;11144;43.030;25.108;2023-07-29T04:40:24;99241.09;;;15.62;65.75
21960;BME280;11144;43.030;25.108;2023-07-29T04:41:57;99236.50;;;15.75;66.13
21960;BME280;11144;43.030;25.108;2023-07-29T04:43:31;99242.31;;;16.08;66.74
21960;BME280;11144;43.030;25.108;2023-07-29T04:45:06;99245.88;;;16.57;66.98
21960;BME280;11144;43.030;25.108;2023-07-29T04:46:38;99240.44;;;17.00;67.43
21960;BME280;11144;43.030;25.108;2023-07-29T04:48:13;99238.03;;;17.39;67.09
21960;BME280;11144;43.030;25.108;2023-07-29T04:49:47;99234.69;;;17.85;66.45
21960;BME280;11144;43.030;25.108;2023-07-29T04:51:19;99231.34;;;18.24;65.76
21960;BME280;11144;43.030;25.108;2023-07-29T04:52:53;99232.22;;;18.65;66.62
21960;BME280;11144;43.030;25.108;2023-07-29T04:54:25;99228.16;;;19.02;66.26
21960;BME280;11144;43.030;25.108;2023-07-29T04:55:59;99227.13;;;19.48;62.62
21960;BME280;11144;43.030;25.108;2023-07-29T04:57:31;99231.75;;;19.85;63.67
21960;BME280;11144;43.030;25.108;2023-07-29T04:59:05;99231.63;;;20.30;62.16
21960;BME280;11144;43.030;25.108;2023-07-29T05:00:40;99247.50;;;20.85;62.18
21960;BME280;11144;43.030;25.108;2023-07-29T05:02:15;99237.72;;;21.17;60.43
21960;BME280;11144;43.030;25.108;2023-07-29T05:03:49;99234.06;;;21.55;60.49
21960;BME280;11144;43.030;25.108;2023-07-29T05:05:22;99233.06;;;21.93;57.44
21960;BME280;11144;43.030;25.108;2023-07-29T05:06:55;99237.53;;;22.24;57.36
21960;BME280;11144;43.030;25.108;2023-07-29T05:08:28;99235.41;;;22.73;56.67
21960;BME280;11144;43.030;25.108;2023-07-29T05:10:01;99225.63;;;23.14;55.11
21960;BME280;11144;43.030;25.108;2023-07-29T05:11:34;99232.66;;;23.50;53.92
21960;BME280;11144;43.030;25.108;2023-07-29T05:13:07;99239.63;;;23.86;54.27
21960;BME280;11144;43.030;25.108;2023-07-29T05:14:40;99240.13;;;24.24;51.87
21960;BME280;11144;43.030;25.108;2023-07-29T05:16:13;99250.25;;;24.37;49.62
21960;BME280;11144;43.030;25.108;2023-07-29T05:17:46;99242.22;;;24.42;48.64
21960;BME280;11144;43.030;25.108;2023-07-29T05:19:20;99240.56;;;24.51;50.88
21960;BME280;11144;43.030;25.108;2023-07-29T05:20:54;99254.16;;;24.69;49.74
21960;BME280;11144;43.030;25.108;2023-07-29T05:22:27;99248.72;;;25.00;48.90
21960;BME280;11144;43.030;25.108;2023-07-29T05:24:00;99255.25;;;25.27;47.98
21960;BME280;11144;43.030;25.108;2023-07-29T05:25:32;99254.28;;;25.52;48.40
21960;BME280;11144;43.030;25.108;2023-07-29T05:27:07;99250.97;;;25.65;47.22
21960;BME280;11144;43.030;25.108;2023-07-29T05:28:40;99251.78;;;25.66;44.08
21960;BME280;11144;43.030;25.108;2023-07-29T05:30:14;99241.25;;;25.69;45.02
21960;BME280;11144;43.030;25.108;2023-07-29T05:31:47;99255.84;;;25.92;45.83
21960;BME280;11144;43.030;25.108;2023-07-29T05:33:20;99243.06;;;26.12;44.10
21960;BME280;11144;43.030;25.108;2023-07-29T05:34:55;99254.47;;;26.52;44.25
21960;BME280;11144;43.030;25.108;2023-07-29T05:36:28;99254.47;;;26.75;42.69
21960;BME280;11144;43.030;25.108;2023-07-29T05:38:01;99254.69;;;26.79;42.64
21960;BME280;11144;43.030;25.108;2023-07-29T05:39:35;99262.78;;;26.97;42.02
21960;BME280;11144;43.030;25.108;2023-07-29T05:41:08;99258.88;;;27.09;41.83
21960;BME280;11144;43.030;25.108;2023-07-29T05:42:41;99254.56;;;27.26;41.02
21960;BME280;11144;43.030;25.108;2023-07-29T05:44:14;99256.28;;;27.41;40.22
21960;BME280;11144;43.030;25.108;2023-07-29T05:45:46;99262.38;;;27.28;39.90
21960;BME280;11144;43.030;25.108;2023-07-29T05:47:20;99250.94;;;27.17;39.77
21960;BME280;11144;43.030;25.108;2023-07-29T05:48:52;99253.47;;;27.09;39.36
21960;BME280;11144;43.030;25.108;2023-07-29T05:50:27;99248.69;;;27.06;39.61
21960;BME280;11144;43.030;25.108;2023-07-29T05:51:59;99248.53;;;27.16;38.45
21960;BME280;11144;43.030;25.108;2023-07-29T05:53:33;99246.50;;;27.26;37.95
21960;BME280;11144;43.030;25.108;2023-07-29T05:55:06;99243.78;;;27.50;37.92
21960;BME280;11144;43.030;25.108;2023-07-29T05:56:39;99237.63;;;27.63;37.95
21960;BME280;11144;43.030;25.108;2023-07-29T05:58:13;99239.56;;;27.76;37.00
21960;BME280;11144;43.030;25.108;2023-07-29T05:59:47;99230.13;;;27.92;36.57
21960;BME280;11144;43.030;25.108;2023-07-29T06:01:19;99235.41;;;27.97;36.54
21960;BME280;11144;43.030;25.108;2023-07-29T06:02:53;99234.00;;;27.86;35.62
21960;BME280;11144;43.030;25.108;2023-07-29T06:04:27;99232.47;;;27.80;35.72
21960;BME280;11144;43.030;25.108;2023-07-29T06:06:01;99227.38;;;27.65;36.41
21960;BME280;11144;43.030;25.108;2023-07-29T06:07:34;99225.31;;;27.57;35.78
21960;BME280;11144;43.030;25.108;2023-07-29T06:09:07;99223.34;;;27.62;35.09
21960;BME280;11144;43.030;25.108;2023-07-29T06:10:40;99221.47;;;27.63;35.43
21960;BME280;11144;43.030;25.108;2023-07-29T06:12:13;99216.47;;;27.56;36.03
21960;BME280;11144;43.030;25.108;2023-07-29T06:13:46;99209.00;;;27.67;35.78
21960;BME280;11144;43.030;25.108;2023-07-29T06:15:20;99214.38;;;27.99;34.66
21960;BME280;11144;43.030;25.108;2023-07-29T06:16:55;99212.53;;;28.27;34.28
21960;BME280;11144;43.030;25.108;2023-07-29T06:18:28;99215.22;;;28.54;35.43
21960;BME280;11144;43.030;25.108;2023-07-29T06:20:01;99204.31;;;28.73;34.21
21960;BME280;11144;43.030;25.108;2023-07-29T06:21:36;99203.13;;;28.79;34.64
21960;BME280;11144;43.030;25.108;2023-07-29T06:23:08;99209.41;;;28.88;33.50
21960;BME280;11144;43.030;25.108;2023-07-29T06:24:41;99205.16;;;29.09;32.71
21960;BME280;11144;43.030;25.108;2023-07-29T06:26:14;99200.22;;;28.89;32.41
21960;BME280;11144;43.030;25.108;2023-07-29T06:27:47;99198.84;;;28.78;33.87
21960;BME280;11144;43.030;25.108;2023-07-29T06:29:20;99194.59;;;28.85;32.92
21960;BME280;11144;43.030;25.108;2023-07-29T06:30:53;99200.00;;;28.85;32.98
21960;BME280;11144;43.030;25.108;2023-07-29T06:32:25;99202.38;;;29.00;32.90
21960;BME280;11144;43.030;25.108;2023-07-29T06:33:58;99195.94;;;29.10;32.84
21960;BME280;11144;43.030;25.108;2023-07-29T06:35:31;99197.28;;;29.35;33.28
21960;BME280;11144;43.030;25.108;2023-07-29T06:37:06;99193.41;;;29.71;32.40
21960;BME280;11144;43.030;25.108;2023-07-29T06:38:39;99197.56;;;30.00;32.55
21960;BME280;11144;43.030;25.108;2023-07-29T06:40:13;99199.69;;;30.11;32.02
21960;BME280;11144;43.030;25.108;2023-07-29T06:41:45;99192.09;;;30.30;31.59
21960;BME280;11144;43.030;25.108;2023-07-29T06:43:19;99196.47;;;30.40;30.08
21960;BME280;11144;43.030;25.108;2023-07-29T06:44:53;99193.38;;;30.24;30.88
21960;BME280;11144;43.030;25.108;2023-07-29T06:46:25;99191.25;;;30.13;30.85
21960;BME280;11144;43.030;25.108;2023-07-29T06:47:59;99192.13;;;29.69;31.69
21960;BME280;11144;43.030;25.108;2023-07-29T06:49:31;99188.25;;;29.83;30.78
21960;BME280;11144;43.030;25.108;2023-07-29T06:51:04;99194.22;;;30.03;30.35
21960;BME280;11144;43.030;25.108;2023-07-29T06:52:38;99189.72;;;30.29;30.30
21960;BME280;11144;43.030;25.108;2023-07-29T06:54:12;99190.59;;;30.46;29.82
21960;BME280;11144;43.030;25.108;2023-07-29T06:55:45;99193.34;;;30.72;29.55
21960;BME280;11144;43.030;25.108;2023-07-29T06:57:20;99185.41;;;30.84;29.34
21960;BME280;11144;43.030;25.108;2023-07-29T06:58:52;99180.38;;;31.00;28.47
21960;BME280;11144;43.030;25.108;2023-07-29T07:00:26;99179.69;;;31.11;28.95
21960;BME280;11144;43.030;25.108;2023-07-29T07:01:59;99190.84;;;31.18;28.26
21960;BME280;11144;43.030;25.108;2023-07-29T07:03:32;99181.31;;;31.21;28.99
21960;BME280;11144;43.030;25.108;2023-07-29T07:05:05;99179.25;;;31.44;29.02
21960;BME280;11144;43.030;25.108;2023-07-29T07:06:38;99182.06;;;31.64;28.59
21960;BME280;11144;43.030;25.108;2023-07-29T07:08:13;99179.00;;;31.74;28.46
21960;BME280;11144;43.030;25.108;2023-07-29T07:09:46;99181.44;;;31.59;28.23
21960;BME280;11144;43.030;25.108;2023-07-29T07:11:19;99184.75;;;31.73;27.79
21960;BME280;11144;43.030;25.108;2023-07-29T07:12:53;99183.63;;;31.74;27.69
21960;BME280;11144;43.030;25.108;2023-07-29T07:14:25;99185.09;;;31.63;27.41
21960;BME280;11144;43.030;25.108;2023-07-29T07:15:58;99183.16;;;31.72;27.44
21960;BME280;11144;43.030;25.108;2023-07-29T07:17:31;99179.41;;;32.02;26.88
21960;BME280;11144;43.030;25.108;2023-07-29T07:19:04;99185.59;;;32.11;27.05
21960;BME280;11144;43.030;25.108;2023-07-29T07:20:36;99178.44;;;32.07;26.82
21960;BME280;11144;43.030;25.108;2023-07-29T07:22:10;99168.31;;;31.78;27.22
21960;BME280;11144;43.030;25.108;2023-07-29T07:23:43;99176.63;;;31.64;27.45
21960;BME280;11144;43.030;25.108;2023-07-29T07:25:17;99166.75;;;31.68;27.18
21960;BME280;11144;43.030;25.108;2023-07-29T07:26:49;99166.31;;;32.04;26.80
21960;BME280;11144;43.030;25.108;2023-07-29T07:28:22;99168.41;;;32.36;26.53
21960;BME280;11144;43.030;25.108;2023-07-29T07:29:55;99169.06;;;32.62;26.08
21960;BME280;11144;43.030;25.108;2023-07-29T07:31:28;99165.50;;;32.70;26.27
21960;BME280;11144;43.030;25.108;2023-07-29T07:33:01;99151.63;;;32.72;25.89
21960;BME280;11144;43.030;25.108;2023-07-29T07:34:34;99161.91;;;32.99;24.89
21960;BME280;11144;43.030;25.108;2023-07-29T07:36:07;99168.38;;;33.15;25.41
21960;BME280;11144;43.030;25.108;2023-07-29T07:37:39;99166.13;;;33.17;26.04
21960;BME280;11144;43.030;25.108;2023-07-29T07:39:15;99168.19;;;33.20;25.32
21960;BME280;11144;43.030;25.108;2023-07-29T07:40:52;99160.75;;;33.29;24.29
21960;BME280;11144;43.030;25.108;2023-07-29T07:42:27;99159.41;;;33.15;24.10
21960;BME280;11144;43.030;25.108;2023-07-29T07:43:59;99163.94;;;33.11;24.47
21960;BME280;11144;43.030;25.108;2023-07-29T07:45:32;99172.78;;;33.08;24.64
21960;BME280;11144;43.030;25.108;2023-07-29T07:47:05;99160.00;;;33.41;23.97
21960;BME280;11144;43.030;25.108;2023-07-29T07:48:38;99171.31;;;33.43;24.61
21960;BME280;11144;43.030;25.108;2023-07-29T07:50:11;99159.53;;;33.72;23.41
21960;BME280;11144;43.030;25.108;2023-07-29T07:51:45;99158.88;;;33.87;23.32
21960;BME280;11144;43.030;25.108;2023-07-29T07:53:18;99161.41;;;34.16;22.73
21960;BME280;11144;43.030;25.108;2023-07-29T07:54:53;99157.56;;;34.29;22.96
21960;BME280;11144;43.030;25.108;2023-07-29T07:56:27;99157.88;;;34.40;23.26
21960;BME280;11144;43.030;25.108;2023-07-29T07:57:59;99148.38;;;34.58;21.84
21960;BME280;11144;43.030;25.108;2023-07-29T07:59:32;99158.50;;;34.85;22.15
21960;BME280;11144;43.030;25.108;2023-07-29T08:01:05;99159.34;;;34.73;21.58
21960;BME280;11144;43.030;25.108;2023-07-29T08:02:39;99149.91;;;34.71;21.89
21960;BME280;11144;43.030;25.108;2023-07-29T08:04:11;99143.75;;;34.74;21.25
21960;BME280;11144;43.030;25.108;2023-07-29T08:05:45;99145.84;;;34.65;21.04
21960;BME280;11144;43.030;25.108;2023-07-29T08:07:17;99144.47;;;34.71;20.60
21960;BME280;11144;43.030;25.108;2023-07-29T08:08:51;99136.06;;;34.76;21.21
21960;BME280;11144;43.030;25.108;2023-07-29T08:10:24;99138.53;;;34.81;21.57